createdAt,value
2019-02-12T00:00:49.468Z,2.23
2019-02-12T00:03:18.427Z,1.97
2019-02-12T00:05:47.758Z,2.53
2019-02-12T00:08:16.931Z,2.20
2019-02-12T00:10:46.154Z,2.23
2019-02-12T00:13:15.195Z,2.53
2019-02-12T00:15:44.321Z,1.40
2019-02-12T00:18:13.714Z,1.70
2019-02-12T00:20:42.727Z,1.30
2019-02-12T00:23:11.856Z,2.03
2019-02-12T00:25:41.040Z,1.93
2019-02-12T00:28:09.849Z,1.83
2019-02-12T00:30:39.001Z,1.40
2019-02-12T00:33:07.939Z,1.40
2019-02-12T00:35:36.742Z,1.43
2019-02-12T00:38:05.563Z,2.00
2019-02-12T00:40:34.510Z,1.30
2019-02-12T00:43:03.402Z,1.40
2019-02-12T00:45:32.549Z,1.30
2019-02-12T00:48:01.425Z,1.40
2019-02-12T00:50:30.343Z,1.40
2019-02-12T00:52:59.396Z,1.20
2019-02-12T00:55:28.231Z,1.00
2019-02-12T00:57:57.026Z,1.57
2019-02-12T01:00:26.084Z,1.10
2019-02-12T01:02:55.157Z,1.80
2019-02-12T01:05:24.347Z,1.47
2019-02-12T01:07:53.544Z,1.70
2019-02-12T01:10:22.519Z,1.47
2019-02-12T01:12:51.308Z,1.27
2019-02-12T01:15:20.401Z,1.53
2019-02-12T01:17:49.183Z,1.47
2019-02-12T01:20:19.178Z,1.23
2019-02-12T01:22:47.974Z,1.77
2019-02-12T01:25:16.884Z,1.30
2019-02-12T01:27:45.714Z,2.00
2019-02-12T01:30:17.026Z,1.40
2019-02-12T01:32:46.092Z,1.50
2019-02-12T01:35:15.168Z,1.60
2019-02-12T01:37:44.276Z,1.43
2019-02-12T01:40:14.190Z,1.57
2019-02-12T01:42:43.154Z,1.17
2019-02-12T01:45:12.955Z,1.40
2019-02-12T01:47:41.765Z,1.60
2019-02-12T01:50:12.493Z,1.60
2019-02-12T01:52:41.574Z,1.53
2019-02-12T01:55:10.403Z,1.43
2019-02-12T01:57:39.514Z,1.57
2019-02-12T02:00:11.208Z,1.37
2019-02-12T02:02:40.313Z,1.47
2019-02-12T02:05:09.505Z,1.80
2019-02-12T02:07:38.478Z,1.50
2019-02-12T02:10:09.077Z,1.50
2019-02-12T02:12:37.899Z,1.87
2019-02-12T02:15:08.450Z,1.83
2019-02-12T02:17:37.293Z,1.90
2019-02-12T02:20:06.745Z,1.30
2019-02-12T02:22:35.660Z,1.53
2019-02-12T02:25:04.948Z,1.77
2019-02-12T02:27:33.886Z,1.47
2019-02-12T02:30:03.067Z,1.80
2019-02-12T02:32:31.867Z,1.63
2019-02-12T02:35:00.783Z,1.57
2019-02-12T02:37:30.026Z,1.30
2019-02-12T02:39:58.834Z,2.60
2019-02-12T02:42:27.604Z,1.90
2019-02-12T02:44:56.400Z,2.20
2019-02-12T02:47:25.470Z,1.67
2019-02-12T02:49:54.775Z,1.60
2019-02-12T02:52:23.569Z,2.10
2019-02-12T02:54:52.613Z,1.53
2019-02-12T02:57:21.428Z,1.70
2019-02-12T02:59:50.462Z,1.60
2019-02-12T03:02:19.277Z,1.70
2019-02-12T03:04:48.348Z,1.13
2019-02-12T03:07:17.401Z,1.60
2019-02-12T03:09:46.499Z,1.40
2019-02-12T03:12:15.536Z,1.50
2019-02-12T03:14:44.579Z,1.53
2019-02-12T03:17:13.440Z,1.30
2019-02-12T03:19:42.203Z,1.53
2019-02-12T03:22:11.274Z,1.90
2019-02-12T03:24:40.037Z,1.60
2019-02-12T03:27:08.817Z,1.07
2019-02-12T03:29:37.585Z,1.60
2019-02-12T03:32:06.365Z,1.63
2019-02-12T03:34:35.245Z,1.40
2019-02-12T03:37:04.316Z,1.87
2019-02-12T03:39:33.318Z,0.97
2019-02-12T03:42:02.110Z,1.60
2019-02-12T03:44:31.319Z,1.53
2019-02-12T03:47:00.114Z,1.73
2019-02-12T03:49:28.873Z,1.50
2019-02-12T03:51:57.946Z,1.20
2019-02-12T03:54:26.852Z,1.07
2019-02-12T03:56:55.773Z,1.10
2019-02-12T03:59:24.845Z,1.60
2019-02-12T04:01:53.658Z,1.50
2019-02-12T04:04:22.507Z,1.30
2019-02-12T04:06:51.576Z,1.50
2019-02-12T04:09:20.618Z,1.30
2019-02-12T04:11:49.724Z,1.40
2019-02-12T04:14:18.510Z,1.33
2019-02-12T04:16:47.819Z,0.90
2019-02-12T04:19:16.892Z,1.50
2019-02-12T04:21:45.942Z,1.50
2019-02-12T04:24:14.707Z,1.30
2019-02-12T04:26:43.490Z,1.57
2019-02-12T04:29:12.313Z,0.83
2019-02-12T04:31:41.165Z,1.20
2019-02-12T04:34:10.118Z,1.10
2019-02-12T04:36:39.254Z,1.30
2019-02-12T04:39:08.187Z,1.40
2019-02-12T04:41:37.321Z,1.20
2019-02-12T04:44:06.142Z,1.30
2019-02-12T04:46:35.003Z,1.30
2019-02-12T04:49:03.768Z,0.90
2019-02-12T04:51:32.843Z,1.03
2019-02-12T04:54:01.653Z,1.40
2019-02-12T04:56:30.696Z,1.07
2019-02-12T04:58:59.733Z,1.10
2019-02-12T05:01:28.553Z,1.07
2019-02-12T05:03:57.337Z,1.13
2019-02-12T05:06:26.102Z,1.00
2019-02-12T05:09:13.613Z,1.10
2019-02-12T05:11:45.150Z,1.10
2019-02-12T05:14:14.214Z,1.33
2019-02-12T05:16:43.012Z,0.80
2019-02-12T05:19:11.770Z,1.50
2019-02-12T05:21:40.560Z,1.40
2019-02-12T05:24:09.333Z,1.10
2019-02-12T05:26:38.390Z,1.00
2019-02-12T05:29:07.179Z,1.70
2019-02-12T05:31:36.535Z,1.10
2019-02-12T05:34:05.449Z,1.23
2019-02-12T05:36:34.239Z,1.30
2019-02-12T05:39:03.401Z,1.30
2019-02-12T05:41:32.214Z,1.30
2019-02-12T05:44:01.106Z,1.17
2019-02-12T05:46:30.359Z,1.57
2019-02-12T05:48:59.461Z,1.57
2019-02-12T05:51:28.334Z,1.50
2019-02-12T05:53:57.408Z,1.20
2019-02-12T05:56:26.166Z,1.57
2019-02-12T05:58:55.349Z,1.40
2019-02-12T06:01:24.135Z,1.30
2019-02-12T06:03:53.232Z,1.50
2019-02-12T06:06:22.004Z,1.47
2019-02-12T06:08:51.067Z,2.80
2019-02-12T06:11:19.886Z,1.60
2019-02-12T06:13:49.696Z,1.80
2019-02-12T06:16:18.758Z,1.80
2019-02-12T06:18:47.555Z,1.60
2019-02-12T06:21:16.369Z,1.90
2019-02-12T06:23:45.426Z,1.47
2019-02-12T06:26:14.225Z,1.47
2019-02-12T06:28:43.254Z,1.40
2019-02-12T06:31:12.082Z,1.50
2019-02-12T06:33:41.690Z,2.27
2019-02-12T06:36:10.492Z,1.97
2019-02-12T06:38:39.589Z,1.50
2019-02-12T06:41:08.652Z,1.63
2019-02-12T06:43:37.577Z,2.07
2019-02-12T06:46:06.463Z,1.50
2019-02-12T06:48:35.253Z,2.00
2019-02-12T06:51:04.047Z,2.10
2019-02-12T06:53:32.827Z,2.03
2019-02-12T06:56:01.873Z,1.43
2019-02-12T06:58:30.829Z,1.90
2019-02-12T07:01:00.281Z,1.37
2019-02-12T07:03:56.616Z,1.97
2019-02-12T07:06:51.359Z,1.80
2019-02-12T07:09:56.835Z,1.83
2019-02-12T07:13:03.391Z,1.93
2019-02-12T07:15:39.290Z,1.70
2019-02-12T07:18:46.871Z,1.97
2019-02-12T07:21:59.806Z,2.27
2019-02-12T07:25:25.018Z,2.10
2019-02-12T07:28:56.287Z,1.90
2019-02-12T07:31:47.865Z,2.40
2019-02-12T07:34:43.925Z,1.70
2019-02-12T07:37:49.699Z,2.40
2019-02-12T07:40:46.259Z,1.70
2019-02-12T07:43:54.865Z,2.00
2019-02-12T07:46:59.433Z,1.67
2019-02-12T07:50:27.530Z,1.97
2019-02-12T07:53:38.852Z,2.23
2019-02-12T07:56:49.731Z,2.13
2019-02-12T07:59:29.821Z,2.10
2019-02-12T08:02:33.756Z,2.47
2019-02-12T08:05:48.271Z,2.03
2019-02-12T08:09:05.447Z,1.67
2019-02-12T08:12:24.949Z,2.17
2019-02-12T08:15:36.036Z,2.47
2019-02-12T08:18:32.908Z,1.90
2019-02-12T08:21:32.283Z,2.60
2019-02-12T08:24:32.929Z,2.33
2019-02-12T08:27:38.389Z,2.40
2019-02-12T08:30:25.835Z,2.17
2019-02-12T08:33:10.957Z,2.50
2019-02-12T08:36:11.213Z,2.40
2019-02-12T08:39:14.715Z,2.23
2019-02-12T08:42:18.796Z,2.33
2019-02-12T08:45:44.115Z,2.30
2019-02-12T08:48:40.164Z,2.13
2019-02-12T08:51:44.689Z,2.23
2019-02-12T08:54:56.665Z,2.43
2019-02-12T08:57:53.200Z,3.07
2019-02-12T09:00:59.270Z,1.97
2019-02-12T09:03:59.183Z,1.93
2019-02-12T09:07:04.514Z,2.17
2019-02-12T09:10:13.500Z,2.57
2019-02-12T09:13:00.148Z,2.17
2019-02-12T09:16:05.448Z,2.60
2019-02-12T09:19:16.975Z,2.57
2019-02-12T09:22:20.163Z,2.20
2019-02-12T09:25:28.902Z,1.87
2019-02-12T09:28:53.808Z,2.17
2019-02-12T09:32:01.049Z,2.70
2019-02-12T09:35:03.897Z,3.63
2019-02-12T09:38:20.377Z,3.27
2019-02-12T09:41:21.659Z,2.37
2019-02-12T09:44:10.507Z,2.57
2019-02-12T09:47:13.084Z,2.30
2019-02-12T09:50:22.928Z,3.83
2019-02-12T09:53:15.963Z,2.23
2019-02-12T09:56:09.057Z,2.87
2019-02-12T09:59:05.998Z,1.97
2019-02-12T10:01:57.010Z,2.73
2019-02-12T10:04:55.708Z,2.33
2019-02-12T10:07:38.890Z,2.60
2019-02-12T10:10:37.628Z,2.00
2019-02-12T10:13:20.926Z,2.53
2019-02-12T10:16:12.137Z,2.73
2019-02-12T10:19:12.607Z,2.10
2019-02-12T10:22:04.924Z,2.10
2019-02-12T10:24:56.122Z,2.27
2019-02-12T10:28:03.663Z,3.00
2019-02-12T10:30:58.563Z,2.73
2019-02-12T10:33:27.815Z,2.47
2019-02-12T10:35:56.850Z,2.13
2019-02-12T10:38:25.666Z,2.40
2019-02-12T10:40:54.449Z,2.10
2019-02-12T10:43:23.574Z,2.47
2019-02-12T10:45:52.458Z,2.73
2019-02-12T10:48:21.290Z,2.53
2019-02-12T10:50:50.357Z,2.43
2019-02-12T10:53:19.122Z,2.00
2019-02-12T10:55:47.908Z,2.30
2019-02-12T10:58:16.725Z,2.67
2019-02-12T11:00:45.560Z,2.27
2019-02-12T11:03:14.346Z,2.23
2019-02-12T11:05:43.194Z,3.27
2019-02-12T11:08:12.031Z,2.80
2019-02-12T11:10:41.133Z,1.83
2019-02-12T11:13:10.506Z,2.63
2019-02-12T11:15:39.671Z,2.77
2019-02-12T11:18:08.608Z,2.53
2019-02-12T11:20:37.406Z,2.00
2019-02-12T11:23:06.145Z,1.70
2019-02-12T11:25:34.942Z,1.93
2019-02-12T11:28:03.810Z,2.47
2019-02-12T11:30:32.873Z,2.10
2019-02-12T11:33:01.955Z,2.47
2019-02-12T11:35:30.758Z,3.57
2019-02-12T11:37:59.789Z,2.23
2019-02-12T11:40:29.164Z,2.70
2019-02-12T11:42:57.916Z,1.60
2019-02-12T11:45:26.878Z,2.13
2019-02-12T11:47:55.642Z,2.30
2019-02-12T11:50:33.197Z,1.80
2019-02-12T11:53:02.159Z,1.87
2019-02-12T11:55:31.187Z,3.13
2019-02-12T11:58:00.279Z,2.40
2019-02-12T12:00:34.463Z,2.27
2019-02-12T12:03:03.210Z,3.07
2019-02-12T12:05:31.976Z,2.10
2019-02-12T12:08:01.071Z,2.77
2019-02-12T12:10:29.856Z,2.53
2019-02-12T12:12:59.116Z,2.23
2019-02-12T12:15:27.899Z,2.50
2019-02-12T12:17:57.043Z,2.67
2019-02-12T12:20:25.821Z,1.77
2019-02-12T12:22:54.612Z,1.83
2019-02-12T12:25:23.388Z,1.63
2019-02-12T12:27:52.227Z,1.50
2019-02-12T12:30:21.516Z,1.53
2019-02-12T12:32:50.653Z,2.10
2019-02-12T12:35:19.518Z,2.47
2019-02-12T12:37:48.568Z,2.33
2019-02-12T12:40:17.389Z,1.93
2019-02-12T12:42:46.447Z,1.73
2019-02-12T12:45:15.460Z,1.63
2019-02-12T12:47:44.357Z,1.70
2019-02-12T12:50:13.902Z,1.60
2019-02-12T12:52:42.682Z,2.00
2019-02-12T12:55:11.681Z,1.77
2019-02-12T12:57:42.214Z,2.20
2019-02-12T13:00:12.032Z,1.50
2019-02-12T13:02:41.121Z,1.60
2019-02-12T13:05:11.110Z,1.87
2019-02-12T13:07:40.188Z,2.07
2019-02-12T13:10:11.213Z,2.20
2019-02-12T13:12:40.108Z,1.10
2019-02-12T13:15:10.280Z,1.77
2019-02-12T13:17:39.304Z,1.80
2019-02-12T13:20:12.830Z,2.00
2019-02-12T13:22:41.699Z,1.60
2019-02-12T13:25:11.224Z,1.20
2019-02-12T13:27:41.177Z,1.50
2019-02-12T13:30:16.547Z,1.70
2019-02-12T13:32:46.711Z,1.70
2019-02-12T13:35:15.965Z,1.60
2019-02-12T13:37:45.092Z,2.20
2019-02-12T13:40:14.251Z,2.37
2019-02-12T13:42:43.097Z,1.97
2019-02-12T13:45:13.314Z,2.03
2019-02-12T13:47:42.720Z,2.63
2019-02-12T13:50:12.751Z,1.50
2019-02-12T13:52:41.681Z,1.40
2019-02-12T13:55:16.892Z,1.93
2019-02-12T13:57:42.251Z,1.80
2019-02-12T14:00:13.128Z,1.53
2019-02-12T14:02:42.219Z,1.27
2019-02-12T14:05:13.460Z,2.00
2019-02-12T14:07:42.763Z,1.47
2019-02-12T14:10:11.975Z,1.63
2019-02-12T14:12:40.892Z,1.50
2019-02-12T14:15:10.875Z,2.47
2019-02-12T14:17:39.732Z,1.63
2019-02-12T14:20:10.719Z,1.67
2019-02-12T14:22:39.523Z,2.27
2019-02-12T14:25:09.736Z,1.60
2019-02-12T14:27:38.525Z,1.93
2019-02-12T14:30:09.172Z,1.67
2019-02-12T14:32:38.053Z,1.60
2019-02-12T14:35:07.438Z,1.63
2019-02-12T14:37:36.229Z,1.57
2019-02-12T14:40:05.376Z,1.70
2019-02-12T14:42:34.516Z,1.40
2019-02-12T14:45:03.710Z,1.60
2019-02-12T14:47:32.487Z,1.87
2019-02-12T14:50:01.217Z,2.00
2019-02-12T14:52:30.002Z,1.83
2019-02-12T14:54:58.748Z,2.17
2019-02-12T14:57:27.724Z,2.47
2019-02-12T14:59:56.514Z,2.07
2019-02-12T15:02:25.368Z,2.07
2019-02-12T15:05:00.406Z,3.97
2019-02-12T15:07:24.644Z,3.23
2019-02-12T15:09:53.439Z,2.67
2019-02-12T15:12:22.568Z,2.63
2019-02-12T15:14:51.937Z,2.47
2019-02-12T15:17:20.730Z,2.67
2019-02-12T15:19:49.522Z,2.67
2019-02-12T15:22:18.872Z,1.77
2019-02-12T15:24:47.693Z,2.00
2019-02-12T15:27:16.722Z,2.53
2019-02-12T15:29:45.485Z,3.23
2019-02-12T15:32:14.325Z,2.30
2019-02-12T15:34:43.386Z,1.77
2019-02-12T15:37:12.423Z,2.20
2019-02-12T15:39:41.427Z,1.73
2019-02-12T15:42:10.264Z,2.10
2019-02-12T15:44:39.326Z,2.00
2019-02-12T15:47:08.341Z,1.80
2019-02-12T15:49:37.162Z,2.00
2019-02-12T15:52:06.019Z,1.73
2019-02-12T15:54:34.813Z,2.20
2019-02-12T15:57:03.855Z,2.50
2019-02-12T15:59:33.491Z,2.03
2019-02-12T16:02:02.658Z,1.73
2019-02-12T16:04:31.472Z,2.20
2019-02-12T16:07:01.909Z,1.57
2019-02-12T16:09:31.554Z,2.03
2019-02-12T16:12:02.411Z,2.07
2019-02-12T16:14:32.572Z,1.87
2019-02-12T16:17:01.333Z,2.40
2019-02-12T16:19:31.967Z,2.40
2019-02-12T16:22:00.987Z,2.20
2019-02-12T16:24:29.781Z,2.33
2019-02-12T16:26:58.664Z,2.57
2019-02-12T16:29:27.478Z,2.33
2019-02-12T16:31:56.649Z,2.47
2019-02-12T16:34:25.719Z,2.67
2019-02-12T16:36:55.149Z,2.43
2019-02-12T16:39:24.060Z,2.90
2019-02-12T16:41:53.303Z,2.07
2019-02-12T16:44:22.368Z,2.77
2019-02-12T16:46:51.866Z,2.63
2019-02-12T16:49:20.971Z,2.67
2019-02-12T16:51:49.812Z,3.10
2019-02-12T16:54:18.864Z,2.33
2019-02-12T16:56:47.687Z,2.67
2019-02-12T16:59:16.612Z,2.83
2019-02-12T17:01:45.691Z,2.33
2019-02-12T17:04:14.758Z,2.50
2019-02-12T17:06:43.563Z,2.60
2019-02-12T17:09:12.388Z,2.30
2019-02-12T17:11:41.163Z,2.40
2019-02-12T17:14:09.954Z,2.53
2019-02-12T17:16:39.039Z,2.77
2019-02-12T17:19:07.889Z,2.90
2019-02-12T17:21:36.705Z,2.30
2019-02-12T17:24:05.497Z,2.97
2019-02-12T17:26:34.285Z,3.50
2019-02-12T17:29:03.420Z,2.50
2019-02-12T17:31:32.747Z,2.47
2019-02-12T17:34:01.934Z,3.27
2019-02-12T17:36:30.805Z,3.10
2019-02-12T17:38:59.966Z,3.23
2019-02-12T17:41:28.841Z,3.10
2019-02-12T17:43:57.616Z,2.93
2019-02-12T17:46:26.502Z,3.57
2019-02-12T17:48:55.823Z,3.43
2019-02-12T17:51:24.679Z,5.07
2019-02-12T17:53:53.558Z,3.87
2019-02-12T17:56:24.995Z,4.03
2019-02-12T17:58:52.911Z,4.70
2019-02-12T18:01:22.317Z,4.33
2019-02-12T18:03:51.362Z,4.23
2019-02-12T18:06:20.209Z,4.87
2019-02-12T18:08:49.009Z,5.00
2019-02-12T18:11:18.091Z,5.30
2019-02-12T18:13:47.427Z,4.97
2019-02-12T18:16:16.469Z,5.03
2019-02-12T18:18:46.940Z,4.97
2019-02-12T18:21:16.083Z,4.90
2019-02-12T18:23:47.677Z,5.17
2019-02-12T18:26:17.975Z,5.70
2019-02-12T18:28:46.771Z,5.30
2019-02-12T18:31:15.829Z,5.67
2019-02-12T18:33:44.979Z,6.30
2019-02-12T18:36:13.775Z,7.03
2019-02-12T18:38:42.939Z,6.47
2019-02-12T18:41:11.802Z,7.17
2019-02-12T18:43:40.940Z,7.67
2019-02-12T18:46:09.787Z,6.50
2019-02-12T18:48:38.652Z,7.73
2019-02-12T18:51:07.487Z,6.93
2019-02-12T18:53:36.347Z,7.50
2019-02-12T18:56:05.258Z,7.33
2019-02-12T18:58:34.569Z,7.07
2019-02-12T19:01:03.368Z,8.57
2019-02-12T19:03:32.515Z,7.40
2019-02-12T19:06:01.306Z,8.40
2019-02-12T19:08:30.117Z,8.10
2019-02-12T19:10:59.190Z,8.50
2019-02-12T19:13:28.127Z,8.67
2019-02-12T19:15:57.457Z,8.10
2019-02-12T19:18:27.868Z,8.97
2019-02-12T19:20:57.101Z,9.43
2019-02-12T19:23:28.697Z,8.83
2019-02-12T19:25:58.085Z,9.30
2019-02-12T19:28:36.346Z,8.97
2019-02-12T19:31:05.709Z,9.20
2019-02-12T19:33:35.465Z,9.77
2019-02-12T19:36:04.527Z,8.80
2019-02-12T19:38:34.042Z,9.90
2019-02-12T19:41:06.995Z,9.63
2019-02-12T19:43:42.080Z,10.00
2019-02-12T19:46:14.466Z,9.47
2019-02-12T19:48:50.587Z,10.40
2019-02-12T19:51:29.053Z,11.37
2019-02-12T19:53:58.515Z,11.37
2019-02-12T19:56:27.974Z,11.80
2019-02-12T19:58:58.147Z,11.33
2019-02-12T20:01:28.084Z,10.87
2019-02-12T20:03:57.090Z,11.63
2019-02-12T20:06:26.989Z,12.57
2019-02-12T20:11:52.346Z,11.40
2019-02-12T20:14:21.601Z,13.33
2019-02-12T20:16:50.400Z,14.07
2019-02-12T20:19:19.508Z,12.87
2019-02-12T20:21:48.541Z,13.27
2019-02-12T20:24:17.360Z,14.07
2019-02-12T20:26:46.170Z,13.03
2019-02-12T20:29:14.982Z,13.33
2019-02-12T20:31:44.064Z,12.73
2019-02-12T20:34:13.119Z,15.23
2019-02-12T20:36:42.206Z,15.03
2019-02-12T20:39:11.038Z,13.73
2019-02-12T20:41:40.119Z,13.80
2019-02-12T20:44:08.902Z,14.80
2019-02-12T20:46:37.716Z,14.07
2019-02-12T20:49:06.524Z,14.80
2019-02-12T20:51:35.300Z,15.87
2019-02-12T20:54:04.257Z,15.77
2019-02-12T20:56:33.063Z,15.57
2019-02-12T20:59:01.866Z,15.83
2019-02-12T21:01:30.664Z,16.43
2019-02-12T21:03:59.717Z,16.77
2019-02-12T21:06:28.562Z,15.97
2019-02-12T21:08:57.690Z,17.47
2019-02-12T21:11:26.804Z,16.63
2019-02-12T21:13:55.681Z,17.23
2019-02-12T21:16:25.092Z,16.47
2019-02-12T21:18:53.971Z,17.03
2019-02-12T21:21:22.866Z,17.00
2019-02-12T21:23:51.910Z,18.10
2019-02-12T21:26:20.835Z,18.07
2019-02-12T21:28:49.668Z,17.90
2019-02-12T21:31:18.459Z,18.23
2019-02-12T21:33:47.392Z,18.07
2019-02-12T21:36:16.394Z,17.67
2019-02-12T21:38:45.349Z,18.83
2019-02-12T21:41:14.412Z,18.33
2019-02-12T21:43:43.451Z,18.77
2019-02-12T21:46:12.229Z,19.27
2019-02-12T21:48:41.005Z,20.43
2019-02-12T21:51:10.103Z,18.93
2019-02-12T21:53:38.902Z,19.33
2019-02-12T21:56:07.700Z,19.80
2019-02-12T21:58:37.432Z,19.27
2019-02-12T22:01:06.297Z,20.20
2019-02-12T22:03:35.329Z,20.03
2019-02-12T22:06:04.184Z,20.57
2019-02-12T22:08:33.058Z,19.80
2019-02-12T22:11:01.866Z,20.03
2019-02-12T22:13:30.686Z,20.30
2019-02-12T22:15:59.584Z,19.37
2019-02-12T22:18:28.374Z,20.60
2019-02-12T22:20:57.271Z,21.20
2019-02-12T22:23:26.593Z,20.57
2019-02-12T22:25:55.435Z,20.17
2019-02-12T22:28:24.483Z,20.70
2019-02-12T22:30:53.355Z,20.80
2019-02-12T22:33:22.395Z,20.13
2019-02-12T22:35:51.163Z,19.93
2019-02-12T22:38:20.011Z,21.00
2019-02-12T22:40:48.791Z,21.10
2019-02-12T22:43:17.697Z,21.80
2019-02-12T22:45:47.244Z,20.57
2019-02-12T22:48:16.094Z,21.63
2019-02-12T22:50:44.960Z,21.73
2019-02-12T22:53:13.738Z,21.13
2019-02-12T22:55:42.939Z,22.50
2019-02-12T22:58:11.759Z,20.90
2019-02-12T23:00:53.930Z,21.60
2019-02-12T23:03:23.111Z,21.93
2019-02-12T23:05:52.249Z,21.60
2019-02-12T23:08:21.378Z,22.77
2019-02-12T23:10:50.268Z,21.97
2019-02-12T23:13:19.211Z,23.07
2019-02-12T23:15:47.978Z,23.17
2019-02-12T23:18:16.791Z,21.43
2019-02-12T23:20:45.642Z,22.87
2019-02-12T23:23:14.794Z,22.33
2019-02-12T23:25:44.319Z,22.83
2019-02-12T23:28:13.854Z,22.23
2019-02-12T23:30:45.591Z,22.43
2019-02-12T23:33:14.479Z,22.73
2019-02-12T23:35:43.342Z,23.23
2019-02-12T23:38:12.455Z,21.13
2019-02-12T23:40:41.558Z,23.63
2019-02-12T23:43:10.879Z,22.03
2019-02-12T23:45:39.755Z,22.70
2019-02-12T23:48:08.628Z,22.57
2019-02-12T23:50:37.994Z,22.27
2019-02-12T23:53:07.202Z,23.00
2019-02-12T23:55:36.131Z,22.27
2019-02-12T23:58:06.253Z,22.07
